createdAt,value
2018-11-02T00:00:53.833Z,13.43
2018-11-02T00:03:24.301Z,16.30
2018-11-02T00:05:54.217Z,17.40
2018-11-02T00:08:26.805Z,18.55
2018-11-02T00:10:56.348Z,17.35
2018-11-02T00:13:26.884Z,15.35
2018-11-02T00:16:01.615Z,14.87
2018-11-02T00:18:33.165Z,14.40
2018-11-02T00:21:02.910Z,15.50
2018-11-02T00:23:32.757Z,15.25
2018-11-02T00:26:04.539Z,17.15
2018-11-02T00:28:34.147Z,14.70
2018-11-02T00:31:06.302Z,18.87
2018-11-02T00:33:37.912Z,16.17
2018-11-02T00:36:08.521Z,19.07
2018-11-02T00:38:38.309Z,20.97
2018-11-02T00:41:08.273Z,19.67
2018-11-02T00:43:37.897Z,13.25
2018-11-02T00:46:11.485Z,13.85
2018-11-02T00:48:41.058Z,27.70
2018-11-02T00:51:11.913Z,16.52
2018-11-02T00:53:42.810Z,15.18
2018-11-02T00:56:12.503Z,12.70
2018-11-02T00:58:44.616Z,21.25
2018-11-02T01:01:15.425Z,21.17
2018-11-02T01:03:45.917Z,17.10
2018-11-02T01:06:15.577Z,13.10
2018-11-02T01:08:47.113Z,17.60
2018-11-02T01:11:16.797Z,16.62
2018-11-02T01:13:47.585Z,17.02
2018-11-02T01:16:18.585Z,18.90
2018-11-02T01:18:53.921Z,26.12
2018-11-02T01:21:27.933Z,18.90
2018-11-02T01:23:57.833Z,15.63
2018-11-02T01:26:33.821Z,14.90
2018-11-02T01:29:03.693Z,12.50
2018-11-02T01:31:34.585Z,21.85
2018-11-02T01:34:04.528Z,17.67
2018-11-02T01:36:36.373Z,15.28
2018-11-02T01:39:09.583Z,19.00
2018-11-02T01:41:41.709Z,19.98
2018-11-02T01:44:11.405Z,19.55
2018-11-02T01:46:40.998Z,15.32
2018-11-02T01:49:11.586Z,12.90
2018-11-02T01:51:48.448Z,12.47
2018-11-02T01:54:20.060Z,9.68
2018-11-02T01:56:53.929Z,14.00
2018-11-02T01:59:23.933Z,11.65
2018-11-02T02:01:53.830Z,15.20
2018-11-02T02:04:23.505Z,16.07
2018-11-02T02:06:54.053Z,13.85
2018-11-02T02:09:25.825Z,16.73
2018-11-02T02:11:55.746Z,15.83
2018-11-02T02:14:26.581Z,14.63
2018-11-02T02:16:56.609Z,15.95
2018-11-02T02:19:28.476Z,15.10
2018-11-02T02:22:00.118Z,14.87
2018-11-02T02:24:30.589Z,19.57
2018-11-02T02:27:07.662Z,16.20
2018-11-02T02:29:38.465Z,15.18
2018-11-02T02:32:10.297Z,18.23
2018-11-02T02:34:40.033Z,13.65
2018-11-02T02:37:10.665Z,18.42
2018-11-02T02:39:45.321Z,14.05
2018-11-02T02:42:19.464Z,13.85
2018-11-02T02:44:50.223Z,15.75
2018-11-02T02:47:24.523Z,15.30
2018-11-02T02:49:55.317Z,15.23
2018-11-02T02:52:25.201Z,14.90
2018-11-02T02:55:03.022Z,14.25
2018-11-02T02:57:33.269Z,13.75
2018-11-02T03:00:06.637Z,31.07
2018-11-02T03:02:37.553Z,12.10
2018-11-02T03:05:09.792Z,15.75
2018-11-02T03:07:41.157Z,21.77
2018-11-02T03:13:17.505Z,14.90
2018-11-02T03:15:48.078Z,25.72
2018-11-02T03:18:17.689Z,25.48
2018-11-02T03:20:50.697Z,18.75
2018-11-02T03:23:20.618Z,20.77
2018-11-02T03:25:50.285Z,23.15
2018-11-02T03:28:20.757Z,25.75
2018-11-02T03:30:53.969Z,21.77
2018-11-02T03:33:25.181Z,21.82
2018-11-02T03:36:00.653Z,22.62
2018-11-02T03:38:31.273Z,28.00
2018-11-02T03:41:02.885Z,18.23
2018-11-02T03:43:33.465Z,18.62
2018-11-02T03:46:03.321Z,16.80
2018-11-02T03:48:39.790Z,22.87
2018-11-02T03:51:09.602Z,22.80
2018-11-02T03:53:39.772Z,17.82
2018-11-02T03:56:15.328Z,17.62
2018-11-02T03:58:45.249Z,25.50
2018-11-02T04:01:14.997Z,24.98
2018-11-02T04:03:45.873Z,21.23
2018-11-02T04:06:17.797Z,20.55
2018-11-02T04:08:47.677Z,17.82
2018-11-02T04:11:17.643Z,21.62
2018-11-02T04:13:50.596Z,15.38
2018-11-02T04:16:22.445Z,13.68
2018-11-02T04:18:52.216Z,18.67
2018-11-02T04:21:22.106Z,20.60
2018-11-02T04:23:51.957Z,22.87
2018-11-02T04:26:29.217Z,20.23
2018-11-02T04:28:59.111Z,22.13
2018-11-02T04:31:30.813Z,16.60
2018-11-02T04:34:00.673Z,19.87
2018-11-02T04:36:30.461Z,17.48
2018-11-02T04:39:02.238Z,20.65
2018-11-02T04:41:33.209Z,15.30
2018-11-02T04:44:03.045Z,22.40
2018-11-02T04:46:33.933Z,15.85
2018-11-02T04:49:06.357Z,18.52
2018-11-02T04:51:36.017Z,15.93
2018-11-02T04:54:05.835Z,19.27
2018-11-02T04:56:37.757Z,21.55
2018-11-02T04:59:12.149Z,24.10
2018-11-02T05:01:42.115Z,25.12
2018-11-02T05:04:17.337Z,25.25
2018-11-02T05:06:47.277Z,18.67
2018-11-02T05:09:20.245Z,23.25
2018-11-02T05:11:51.201Z,19.57
2018-11-02T05:14:21.086Z,19.12
2018-11-02T05:16:51.933Z,21.93
2018-11-02T05:19:21.605Z,21.60
2018-11-02T05:21:51.474Z,20.68
2018-11-02T05:24:21.143Z,17.60
2018-11-02T05:26:50.985Z,20.02
2018-11-02T05:29:24.377Z,26.87
2018-11-02T05:31:54.326Z,19.82
2018-11-02T05:34:25.002Z,17.17
2018-11-02T05:36:55.857Z,26.37
2018-11-02T05:39:26.466Z,23.55
2018-11-02T05:41:57.241Z,28.07
2018-11-02T05:44:29.154Z,18.95
2018-11-02T05:46:59.107Z,22.07
2018-11-02T05:49:29.677Z,18.35
2018-11-02T05:51:59.533Z,20.82
2018-11-02T05:54:31.193Z,17.65
2018-11-02T05:57:02.665Z,19.67
2018-11-02T05:59:40.113Z,19.00
2018-11-02T06:02:10.241Z,23.98
2018-11-02T06:04:40.201Z,17.60
2018-11-02T06:07:11.073Z,27.42
2018-11-02T06:09:41.941Z,27.95
2018-11-02T06:12:12.861Z,18.80
2018-11-02T06:14:44.713Z,24.10
2018-11-02T06:17:14.621Z,19.52
2018-11-02T06:19:44.577Z,21.02
2018-11-02T06:22:18.005Z,23.75
2018-11-02T06:24:48.886Z,19.90
2018-11-02T06:27:19.479Z,23.98
2018-11-02T06:29:49.140Z,20.62
2018-11-02T06:32:18.937Z,20.97
2018-11-02T06:34:48.889Z,22.65
2018-11-02T06:37:18.744Z,16.90
2018-11-02T06:39:48.716Z,24.10
2018-11-02T06:42:24.978Z,19.82
2018-11-02T06:44:58.863Z,19.80
2018-11-02T06:47:28.538Z,19.50
2018-11-02T06:49:59.253Z,24.87
2018-11-02T06:52:28.847Z,20.62
2018-11-02T06:55:02.185Z,19.05
2018-11-02T06:57:38.691Z,17.92
2018-11-02T07:00:11.250Z,31.82
2018-11-02T07:02:40.977Z,24.77
2018-11-02T07:05:11.885Z,21.65
2018-11-02T07:07:41.674Z,26.33
2018-11-02T07:10:15.069Z,24.30
2018-11-02T07:12:44.660Z,23.87
2018-11-02T07:15:15.425Z,22.42
2018-11-02T07:17:45.316Z,22.02
2018-11-02T07:20:15.225Z,18.70
2018-11-02T07:22:47.083Z,20.55
2018-11-02T07:25:17.038Z,19.57
2018-11-02T07:27:47.765Z,20.77
2018-11-02T07:30:17.675Z,24.55
2018-11-02T07:32:49.545Z,22.40
2018-11-02T07:35:20.225Z,28.85
2018-11-02T07:37:50.077Z,22.00
2018-11-02T07:40:19.973Z,23.92
2018-11-02T07:42:49.873Z,32.25
2018-11-02T07:45:20.710Z,23.05
2018-11-02T07:47:54.838Z,39.60
2018-11-02T07:50:24.554Z,31.50
2018-11-02T07:52:54.337Z,27.42
2018-11-02T07:55:25.202Z,25.48
2018-11-02T07:57:56.005Z,32.00
2018-11-02T08:00:25.853Z,35.93
2018-11-02T08:02:57.706Z,37.45
2018-11-02T08:05:28.558Z,40.60
2018-11-02T08:07:58.198Z,34.97
2018-11-02T08:10:29.053Z,45.07
2018-11-02T08:13:04.345Z,35.40
2018-11-02T08:15:34.233Z,44.00
2018-11-02T08:18:06.215Z,44.43
2018-11-02T08:20:36.837Z,37.10
2018-11-02T08:23:06.653Z,33.33
2018-11-02T08:25:37.461Z,29.83
2018-11-02T08:28:08.298Z,27.30
2018-11-02T08:30:38.290Z,34.47
2018-11-02T08:33:10.195Z,43.70
2018-11-02T08:35:43.297Z,35.20
2018-11-02T08:38:13.919Z,47.87
2018-11-02T08:40:43.524Z,34.77
2018-11-02T08:43:13.326Z,39.10
2018-11-02T08:45:43.014Z,25.77
2018-11-02T08:48:14.627Z,26.17
2018-11-02T08:50:44.546Z,21.23
2018-11-02T08:53:17.549Z,23.80
2018-11-02T08:55:48.250Z,24.27
2018-11-02T08:58:19.010Z,20.33
2018-11-02T09:00:49.574Z,15.77
2018-11-02T09:03:19.366Z,17.30
2018-11-02T09:05:56.405Z,12.27
2018-11-02T09:08:26.038Z,14.60
2018-11-02T09:10:56.530Z,17.03
2018-11-02T09:13:27.102Z,10.87
2018-11-02T09:15:57.854Z,7.87
2018-11-02T09:18:29.845Z,10.47
2018-11-02T09:20:59.406Z,8.97
2018-11-02T09:23:30.390Z,9.40
2018-11-02T09:26:03.804Z,11.57
2018-11-02T09:28:37.742Z,10.50
2018-11-02T09:31:07.581Z,9.00
2018-11-02T09:33:38.390Z,8.10
2018-11-02T09:36:12.294Z,7.47
2018-11-02T09:38:43.014Z,9.37
2018-11-02T09:41:12.846Z,9.10
2018-11-02T09:43:48.198Z,5.47
2018-11-02T09:46:18.974Z,5.53
2018-11-02T09:48:50.806Z,4.20
2018-11-02T09:51:23.983Z,4.60
2018-11-02T09:53:53.817Z,4.37
2018-11-02T09:56:23.754Z,6.13
2018-11-02T09:58:55.609Z,7.13
2018-11-02T10:01:25.285Z,6.67
2018-11-02T10:03:56.001Z,4.90
2018-11-02T10:06:30.646Z,3.77
2018-11-02T10:09:04.375Z,4.20
2018-11-02T10:11:33.912Z,3.13
2018-11-02T10:14:04.698Z,3.20
2018-11-02T10:16:34.619Z,4.27
2018-11-02T10:19:04.546Z,2.70
2018-11-02T10:21:34.221Z,1.90
2018-11-02T10:24:04.043Z,1.87
2018-11-02T10:26:35.001Z,3.63
2018-11-02T10:29:09.075Z,1.80
2018-11-02T10:31:39.920Z,2.40
2018-11-02T10:34:11.766Z,1.80
2018-11-02T10:36:44.347Z,2.20
2018-11-02T10:39:16.198Z,2.27
2018-11-02T10:41:50.566Z,1.47
2018-11-02T10:44:28.999Z,2.70
2018-11-02T10:47:03.526Z,1.70
2018-11-02T10:49:34.653Z,1.83
2018-11-02T10:52:07.562Z,3.23
2018-11-02T10:54:38.467Z,1.73
2018-11-02T10:57:08.038Z,2.40
2018-11-02T10:59:38.802Z,1.60
2018-11-02T11:02:13.718Z,1.33
2018-11-02T11:04:43.285Z,1.20
2018-11-02T11:07:13.824Z,2.77
2018-11-02T11:09:44.353Z,0.90
2018-11-02T11:12:18.092Z,1.23
2018-11-02T11:14:51.642Z,1.23
2018-11-02T11:17:22.473Z,1.00
2018-11-02T11:19:52.325Z,1.43
2018-11-02T11:22:23.975Z,3.23
2018-11-02T11:24:53.758Z,1.10
2018-11-02T11:27:24.417Z,1.03
2018-11-02T11:29:54.197Z,1.30
2018-11-02T11:32:24.065Z,0.93
2018-11-02T11:34:53.717Z,1.03
2018-11-02T11:37:23.541Z,1.00
2018-11-02T11:39:53.150Z,3.03
2018-11-02T11:42:24.925Z,1.20
2018-11-02T11:44:55.750Z,1.67
2018-11-02T11:47:31.031Z,0.90
2018-11-02T11:50:00.735Z,0.70
2018-11-02T11:52:30.289Z,0.70
2018-11-02T11:54:59.788Z,1.37
2018-11-02T11:57:30.556Z,1.70
2018-11-02T12:00:01.367Z,1.60
2018-11-02T12:02:31.084Z,1.40
2018-11-02T12:05:08.518Z,1.20
2018-11-02T12:07:39.226Z,1.07
2018-11-02T12:10:19.139Z,5.33
2018-11-02T12:12:50.067Z,1.60
2018-11-02T12:15:21.301Z,2.70
2018-11-02T12:17:57.029Z,1.53
2018-11-02T12:20:30.103Z,2.70
2018-11-02T12:23:02.889Z,1.40
2018-11-02T12:25:32.495Z,1.00
2018-11-02T12:28:04.614Z,1.37
2018-11-02T12:30:34.205Z,1.43
2018-11-02T12:33:03.993Z,1.30
2018-11-02T12:35:33.906Z,2.03
2018-11-02T12:38:03.798Z,1.13
2018-11-02T12:40:33.788Z,0.90
2018-11-02T12:43:06.274Z,1.37
2018-11-02T12:45:37.125Z,0.90
2018-11-02T12:48:07.182Z,1.30
2018-11-02T12:50:40.120Z,1.33
2018-11-02T12:53:17.066Z,1.43
2018-11-02T12:55:46.982Z,1.10
2018-11-02T12:58:16.846Z,1.30
2018-11-02T13:00:46.786Z,1.10
2018-11-02T13:03:25.824Z,3.23
2018-11-02T13:05:58.846Z,1.43
2018-11-02T13:08:30.756Z,1.37
2018-11-02T13:11:01.358Z,0.97
2018-11-02T13:13:32.174Z,2.60
2018-11-02T13:16:22.182Z,1.60
2018-11-02T13:18:55.250Z,1.30
2018-11-02T13:21:25.073Z,1.10
2018-11-02T13:23:56.838Z,3.07
2018-11-02T13:26:30.434Z,1.37
2018-11-02T13:29:00.163Z,1.17
2018-11-02T13:31:32.016Z,1.10
2018-11-02T13:34:01.894Z,1.60
2018-11-02T13:36:32.667Z,1.20
2018-11-02T13:39:03.323Z,1.47
2018-11-02T13:41:35.237Z,2.17
2018-11-02T13:44:05.814Z,1.87
2018-11-02T13:46:35.701Z,4.67
2018-11-02T13:49:09.473Z,1.73
2018-11-02T13:51:39.406Z,3.43
2018-11-02T13:54:08.981Z,1.83
2018-11-02T13:56:42.529Z,1.10
2018-11-02T13:59:13.567Z,2.70
2018-11-02T14:01:44.478Z,1.87
2018-11-02T14:04:14.397Z,1.70
2018-11-02T14:06:51.141Z,3.07
2018-11-02T14:09:21.921Z,2.67
2018-11-02T14:11:52.786Z,1.53
2018-11-02T14:14:22.713Z,6.53
2018-11-02T14:16:58.181Z,1.50
2018-11-02T14:19:31.187Z,4.40
2018-11-02T14:22:00.950Z,1.70
2018-11-02T14:24:31.786Z,1.60
2018-11-02T14:27:03.693Z,1.77
2018-11-02T14:29:33.545Z,1.77
2018-11-02T14:32:04.273Z,1.67
2018-11-02T14:34:33.938Z,3.10
2018-11-02T14:37:03.774Z,2.27
2018-11-02T14:39:33.414Z,2.60
2018-11-02T14:42:04.202Z,3.13
2018-11-02T14:44:33.761Z,6.83
2018-11-02T14:47:03.290Z,1.53
2018-11-02T14:49:33.795Z,2.63
2018-11-02T14:52:04.559Z,2.90
2018-11-02T14:54:37.781Z,2.33
2018-11-02T14:57:09.601Z,1.87
2018-11-02T14:59:39.413Z,2.27
2018-11-02T15:02:11.622Z,4.30
2018-11-02T15:04:41.273Z,5.50
2018-11-02T15:07:12.016Z,2.53
2018-11-02T15:09:42.873Z,4.80
2018-11-02T15:12:12.793Z,2.23
2018-11-02T15:14:42.690Z,2.20
2018-11-02T15:17:13.634Z,8.40
2018-11-02T15:19:45.531Z,7.77
2018-11-02T15:22:15.489Z,6.10
2018-11-02T15:24:45.201Z,4.57
2018-11-02T15:27:15.926Z,12.50
2018-11-02T15:29:46.767Z,2.93
2018-11-02T15:32:17.413Z,4.83
2018-11-02T15:34:47.222Z,3.57
2018-11-02T15:37:17.038Z,3.27
2018-11-02T15:39:49.910Z,4.07
2018-11-02T15:42:24.961Z,6.80
2018-11-02T15:44:55.503Z,3.90
2018-11-02T15:47:25.273Z,3.67
2018-11-02T15:49:54.886Z,2.60
2018-11-02T15:52:27.533Z,3.20
2018-11-02T15:54:57.046Z,10.07
2018-11-02T15:57:28.838Z,16.87
2018-11-02T15:59:58.445Z,8.87
2018-11-02T16:02:28.961Z,5.50
2018-11-02T16:04:58.674Z,5.50
2018-11-02T16:07:28.373Z,11.00
2018-11-02T16:09:57.853Z,3.53
2018-11-02T16:12:27.422Z,3.00
2018-11-02T16:14:56.998Z,6.73
2018-11-02T16:17:26.466Z,5.10
2018-11-02T16:19:55.984Z,2.80
2018-11-02T16:22:25.480Z,4.10
2018-11-02T16:24:54.990Z,6.50
2018-11-02T16:27:24.506Z,13.10
2018-11-02T16:29:54.073Z,14.10
2018-11-02T16:32:23.546Z,14.43
2018-11-02T16:34:53.338Z,12.80
2018-11-02T16:37:24.058Z,13.97
2018-11-02T16:39:53.791Z,19.03
2018-11-02T16:42:23.366Z,12.43
2018-11-02T16:44:53.975Z,11.20
2018-11-02T16:47:23.746Z,5.90
2018-11-02T16:49:53.654Z,6.30
2018-11-02T16:52:24.246Z,6.17
2018-11-02T16:54:53.759Z,27.00
2018-11-02T16:57:23.308Z,12.87
2018-11-02T16:59:52.766Z,13.83
2018-11-02T17:02:24.056Z,21.97
2018-11-02T17:04:53.653Z,14.03
2018-11-02T17:07:23.346Z,6.03
2018-11-02T17:09:53.135Z,5.13
2018-11-02T17:12:22.722Z,2.97
2018-11-02T17:14:52.474Z,11.60
2018-11-02T17:17:22.342Z,14.27
2018-11-02T17:19:52.175Z,16.47
2018-11-02T17:22:21.799Z,32.53
2018-11-02T17:24:51.535Z,20.00
2018-11-02T17:27:21.114Z,17.83
2018-11-02T17:29:50.635Z,17.70
2018-11-02T17:32:20.315Z,19.27
2018-11-02T17:34:49.918Z,25.70
2018-11-02T17:37:19.662Z,27.67
2018-11-02T17:39:49.444Z,23.80
2018-11-02T17:42:20.374Z,21.20
2018-11-02T17:44:52.478Z,19.37
2018-11-02T17:47:22.308Z,15.43
2018-11-02T17:49:52.374Z,19.13
2018-11-02T17:52:23.382Z,18.17
2018-11-02T17:54:53.272Z,20.03
2018-11-02T17:57:23.867Z,16.87
2018-11-02T17:59:54.626Z,11.53
2018-11-02T18:02:25.471Z,8.93
2018-11-02T18:04:56.058Z,10.97
2018-11-02T18:07:26.626Z,10.20
2018-11-02T18:09:56.146Z,13.10
2018-11-02T18:12:26.053Z,8.47
2018-11-02T18:14:57.738Z,7.90
2018-11-02T18:17:31.802Z,17.50
2018-11-02T18:20:01.619Z,12.40
2018-11-02T18:22:32.471Z,10.00
2018-11-02T18:25:02.059Z,9.63
2018-11-02T18:27:32.822Z,15.60
2018-11-02T18:30:03.648Z,13.87
2018-11-02T18:32:33.230Z,11.43
2018-11-02T18:35:07.002Z,9.50
2018-11-02T18:37:38.572Z,8.77
2018-11-02T18:40:09.482Z,9.87
2018-11-02T18:42:39.240Z,7.50
2018-11-02T18:45:12.099Z,9.13
2018-11-02T18:47:44.859Z,8.13
2018-11-02T18:50:21.641Z,8.93
2018-11-02T18:52:52.534Z,9.73
2018-11-02T18:55:22.442Z,7.97
2018-11-02T18:57:52.424Z,5.47
2018-11-02T19:00:22.327Z,8.80
2018-11-02T19:02:53.215Z,5.10
2018-11-02T19:05:23.975Z,10.13
2018-11-02T19:07:54.790Z,7.37
2018-11-02T19:10:25.629Z,5.73
2018-11-02T19:12:55.318Z,7.03
2018-11-02T19:15:25.163Z,15.20
2018-11-02T19:17:54.807Z,16.60
2018-11-02T19:20:24.438Z,15.37
2018-11-02T19:22:54.880Z,32.03
2018-11-02T19:25:24.691Z,14.63
2018-11-02T19:27:54.579Z,13.47
2018-11-02T19:30:24.438Z,14.00
2018-11-02T19:32:54.363Z,6.90
2018-11-02T19:35:24.502Z,8.60
2018-11-02T19:37:54.635Z,7.37
2018-11-02T19:40:27.986Z,8.17
2018-11-02T19:42:59.838Z,6.80
2018-11-02T19:45:29.599Z,5.93
2018-11-02T19:48:01.039Z,5.23
2018-11-02T19:50:32.201Z,7.13
2018-11-02T19:53:02.066Z,6.00
2018-11-02T19:55:33.013Z,5.57
2018-11-02T19:58:02.694Z,7.97
2018-11-02T20:00:32.518Z,5.50
2018-11-02T20:03:04.366Z,11.30
2018-11-02T20:05:34.102Z,10.07
2018-11-02T20:08:09.926Z,10.83
2018-11-02T20:10:40.394Z,8.13
2018-11-02T20:13:10.055Z,9.83
2018-11-02T20:15:41.854Z,7.93
2018-11-02T20:18:12.559Z,7.30
2018-11-02T20:20:43.407Z,6.63
2018-11-02T20:23:15.067Z,6.30
2018-11-02T20:25:44.937Z,9.00
2018-11-02T20:28:14.914Z,7.10
2018-11-02T20:30:45.911Z,7.27
2018-11-02T20:33:15.650Z,9.23
2018-11-02T20:35:49.635Z,6.10
2018-11-02T20:38:20.476Z,11.70
2018-11-02T20:40:50.364Z,7.73
2018-11-02T20:43:19.975Z,5.33
2018-11-02T20:45:50.754Z,6.70
2018-11-02T20:48:20.666Z,7.07
2018-11-02T20:50:50.602Z,7.23
2018-11-02T20:53:20.273Z,6.03
2018-11-02T20:55:49.866Z,8.93
2018-11-02T20:58:20.003Z,9.70
2018-11-02T21:00:49.815Z,9.07
2018-11-02T21:03:25.767Z,8.27
2018-11-02T21:05:58.580Z,9.53
2018-11-02T21:08:29.508Z,13.67
2018-11-02T21:10:59.391Z,12.23
2018-11-02T21:13:29.110Z,8.90
2018-11-02T21:15:59.696Z,10.90
2018-11-02T21:18:29.231Z,10.17
2018-11-02T21:21:00.123Z,11.73
2018-11-02T21:23:29.914Z,24.92
2018-11-02T21:25:59.678Z,73.63
2018-11-02T21:28:30.270Z,65.03
2018-11-02T21:31:00.054Z,155.83
2018-11-02T21:33:31.937Z,197.63
2018-11-02T21:36:02.475Z,41.37
2018-11-02T21:38:33.021Z,31.87
2018-11-02T21:41:03.614Z,29.40
2018-11-02T21:43:33.374Z,10.47
2018-11-02T21:46:03.315Z,9.03
2018-11-02T21:48:34.242Z,6.92
2018-11-02T21:51:03.934Z,9.80
2018-11-02T21:53:34.496Z,12.27
2018-11-02T21:56:05.546Z,8.20
2018-11-02T21:58:37.793Z,10.93
2018-11-02T22:01:08.161Z,15.07
2018-11-02T22:03:38.281Z,14.37
2018-11-02T22:06:10.194Z,11.93
2018-11-02T22:08:40.998Z,8.53
2018-11-02T22:11:10.939Z,23.70
2018-11-02T22:13:41.842Z,7.60
2018-11-02T22:16:12.706Z,8.97
2018-11-02T22:18:43.332Z,6.10
2018-11-02T22:21:13.138Z,9.90
2018-11-02T22:23:46.274Z,9.47
2018-11-02T22:26:15.817Z,5.77
2018-11-02T22:28:46.595Z,8.60
2018-11-02T22:31:18.572Z,13.27
2018-11-02T22:33:49.378Z,14.50
2018-11-02T22:36:25.026Z,15.30
2018-11-02T22:38:55.562Z,21.03
2018-11-02T22:41:25.410Z,14.90
2018-11-02T22:43:55.094Z,15.67
2018-11-02T22:46:29.635Z,15.30
2018-11-02T22:48:59.563Z,9.13
2018-11-02T22:51:29.482Z,9.70
2018-11-02T22:54:00.638Z,11.80
2018-11-02T22:56:34.750Z,14.13
2018-11-02T22:59:04.658Z,15.07
2018-11-02T23:01:34.502Z,12.27
2018-11-02T23:04:08.507Z,11.37
2018-11-02T23:06:41.561Z,9.60
2018-11-02T23:09:11.422Z,12.77
2018-11-02T23:11:42.258Z,11.30
2018-11-02T23:14:12.146Z,9.20
2018-11-02T23:16:41.970Z,10.27
2018-11-02T23:19:17.671Z,10.83
2018-11-02T23:21:48.609Z,10.90
2018-11-02T23:24:19.147Z,11.63
2018-11-02T23:26:48.669Z,6.53
2018-11-02T23:29:19.260Z,8.40
2018-11-02T23:31:49.166Z,13.67
2018-11-02T23:34:18.821Z,9.30
2018-11-02T23:36:49.579Z,6.43
2018-11-02T23:39:19.518Z,14.40
2018-11-02T23:41:50.450Z,10.00
2018-11-02T23:44:22.286Z,12.07
2018-11-02T23:46:52.934Z,11.23
2018-11-02T23:49:22.731Z,10.43
2018-11-02T23:51:58.258Z,9.23
2018-11-02T23:54:28.845Z,8.73
2018-11-02T23:56:58.690Z,9.10
2018-11-02T23:59:28.310Z,11.80
